Time;durP1;ratioP1;P1;durP2;ratioP2;P2;SDS_P1;SDS_P2;PMS_P1;PMS_P2;Temp;Humidity;BMP_temperature;BMP_pressure;BME280_temperature;BME280_humidity;BME280_pressure;Samples;Min_cycle;Max_cycle;Signal;HPM_P1;HPM_P2
2020/12/02 00:01:24;;;;;;;37.10;18.17;;;7.90;89.80;;;;;;5073538;28;20029;-81
2020/12/02 00:04:20;;;;;;;38.53;18.53;;;7.90;89.90;;;;;;5076351;28;20472;-82
2020/12/02 00:06:48;;;;;;;31.97;17.67;;;7.90;89.90;;;;;;5075769;28;20052;-82
2020/12/02 00:09:19;;;;;;;30.67;16.43;;;7.90;89.90;;;;;;5075243;28;20025;-81
2020/12/02 00:11:47;;;;;;;33.70;19.10;;;7.90;90.00;;;;;;5076304;28;20021;-82
2020/12/02 00:14:23;;;;;;;34.27;17.47;;;7.90;90.00;;;;;;5076256;28;20025;-82
2020/12/02 00:16:49;;;;;;;31.70;17.47;;;7.90;90.00;;;;;;5076256;28;20472;-80
2020/12/02 00:19:15;;;;;;;35.00;18.87;;;7.90;90.00;;;;;;5075942;28;20070;-80
2020/12/02 00:21:56;;;;;;;32.03;17.57;;;7.80;90.00;;;;;;5076039;28;20029;-80
2020/12/02 00:24:22;;;;;;;30.83;17.93;;;7.80;90.00;;;;;;5074717;28;20024;-81
2020/12/02 00:26:47;;;;;;;29.97;16.83;;;7.80;90.00;;;;;;5058109;28;20032;-80
2020/12/02 00:29:13;;;;;;;30.23;16.43;;;7.80;90.00;;;;;;5057923;28;20392;-81
2020/12/02 00:31:38;;;;;;;30.93;17.07;;;7.80;90.10;;;;;;5074671;28;20036;-81
2020/12/02 00:34:04;;;;;;;31.63;16.67;;;7.80;90.10;;;;;;5057946;28;20037;-81
2020/12/02 00:36:29;;;;;;;30.90;16.93;;;7.80;90.20;;;;;;5076011;28;20115;-81
2020/12/02 00:38:55;;;;;;;32.20;16.70;;;7.80;90.20;;;;;;5074593;28;20032;-81
2020/12/02 00:41:21;;;;;;;33.13;16.83;;;7.70;90.30;;;;;;5075542;28;20400;-81
2020/12/02 00:43:46;;;;;;;30.67;16.43;;;7.80;90.30;;;;;;5075504;28;20034;-81
2020/12/02 00:46:13;;;;;;;32.00;17.90;;;7.80;90.30;;;;;;5074321;28;20044;-81
2020/12/02 00:48:42;;;;;;;32.43;18.63;;;7.80;90.30;;;;;;5075506;28;20025;-80
2020/12/02 00:51:09;;;;;;;32.67;18.57;;;7.80;90.30;;;;;;5075653;28;20495;-80
2020/12/02 00:53:36;;;;;;;30.80;17.50;;;7.90;90.30;;;;;;5080187;28;20032;-80
2020/12/02 00:56:04;;;;;;;33.23;17.23;;;7.80;90.20;;;;;;5076295;28;20021;-80
2020/12/02 00:58:51;;;;;;;29.87;16.33;;;7.90;90.30;;;;;;5074186;28;20035;-81
2020/12/02 01:01:28;;;;;;;29.33;16.53;;;7.80;90.30;;;;;;5077645;28;20473;-79
2020/12/02 01:03:58;;;;;;;30.87;17.03;;;7.70;90.30;;;;;;5075229;28;20051;-80
2020/12/02 01:06:23;;;;;;;30.00;16.60;;;7.80;90.30;;;;;;5057185;28;20369;-79
2020/12/02 01:08:50;;;;;;;27.20;16.17;;;7.80;90.30;;;;;;5057336;28;20031;-74
2020/12/02 01:11:18;;;;;;;27.17;15.57;;;7.70;90.40;;;;;;5073802;28;20130;-74
2020/12/02 01:13:46;;;;;;;29.00;16.23;;;7.70;90.40;;;;;;5074381;28;20329;-72
2020/12/02 01:16:15;;;;;;;32.30;17.20;;;7.70;90.50;;;;;;5075011;28;20119;-74
2020/12/02 01:18:41;;;;;;;31.83;17.13;;;7.70;90.50;;;;;;5073543;28;20107;-74
2020/12/02 01:21:42;;;;;;;32.03;17.43;;;7.80;90.40;;;;;;5073545;28;20491;-74
2020/12/02 01:24:13;;;;;;;30.73;17.10;;;7.80;90.40;;;;;;5073540;28;20488;-74
2020/12/02 01:26:48;;;;;;;31.40;17.13;;;7.70;90.40;;;;;;5074783;28;20029;-73
2020/12/02 01:29:20;;;;;;;28.70;15.87;;;7.70;90.50;;;;;;5074884;28;20028;-74
2020/12/02 01:31:52;;;;;;;35.83;18.27;;;7.70;90.50;;;;;;5074646;28;20084;-74
2020/12/02 01:34:18;;;;;;;31.23;16.90;;;7.70;90.50;;;;;;5074642;28;20120;-74
2020/12/02 01:37:02;;;;;;;33.33;17.57;;;7.80;90.50;;;;;;5074913;28;20032;-73
2020/12/02 01:39:37;;;;;;;28.83;16.73;;;7.70;90.50;;;;;;5074608;28;20471;-74
2020/12/02 01:42:09;;;;;;;30.60;15.83;;;7.70;90.50;;;;;;5073333;28;20089;-74
2020/12/02 01:44:35;;;;;;;30.13;16.70;;;7.70;90.50;;;;;;5074126;28;20024;-73
2020/12/02 01:47:12;;;;;;;31.93;16.90;;;7.70;90.50;;;;;;5073076;28;20035;-74
2020/12/02 01:49:55;;;;;;;32.77;17.90;;;7.70;90.50;;;;;;5072998;28;20025;-74
2020/12/02 01:53:03;;;;;;;32.20;17.33;;;7.70;90.50;;;;;;5072948;28;20059;-74
2020/12/02 01:55:44;;;;;;;31.50;17.47;;;7.70;90.50;;;;;;5069771;28;20029;-74
2020/12/02 01:58:22;;;;;;;34.27;17.63;;;7.80;90.50;;;;;;5072674;28;20433;-74
2020/12/02 02:01:01;;;;;;;32.00;17.80;;;7.70;90.50;;;;;;5074356;28;20017;-74
2020/12/02 02:03:33;;;;;;;33.40;17.60;;;7.60;90.50;;;;;;5073858;28;20483;-74
2020/12/02 02:06:04;;;;;;;28.77;16.53;;;7.70;90.60;;;;;;5072721;28;20494;-74
2020/12/02 02:08:34;;;;;;;33.97;17.43;;;7.60;90.60;;;;;;5074051;28;20012;-74
2020/12/02 02:11:04;;;;;;;34.47;18.20;;;7.60;90.60;;;;;;5073837;28;20104;-74
2020/12/02 02:14:14;;;;;;;34.67;18.07;;;7.70;90.60;;;;;;5072568;28;20021;-74
2020/12/02 02:16:45;;;;;;;31.63;18.00;;;7.70;90.60;;;;;;5071673;28;20399;-74
2020/12/02 02:19:20;;;;;;;35.17;18.17;;;7.70;90.60;;;;;;5071682;28;20034;-74
2020/12/02 02:21:52;;;;;;;33.47;18.13;;;7.70;90.70;;;;;;5072189;28;20025;-74
2020/12/02 02:24:17;;;;;;;36.60;18.87;;;7.70;90.70;;;;;;5071713;28;20032;-73
2020/12/02 02:26:48;;;;;;;36.93;18.93;;;7.70;90.70;;;;;;5073692;28;20029;-74
2020/12/02 02:29:20;;;;;;;38.47;19.20;;;7.70;90.70;;;;;;5073955;28;20107;-74
2020/12/02 02:32:02;;;;;;;39.27;19.97;;;7.70;90.70;;;;;;5072352;28;20025;-81
2020/12/02 02:34:30;;;;;;;39.23;19.47;;;7.70;90.70;;;;;;5074595;28;20029;-82
2020/12/02 02:36:57;;;;;;;35.70;19.63;;;7.70;90.70;;;;;;5075408;28;20032;-82
2020/12/02 02:39:23;;;;;;;37.23;19.70;;;7.70;90.70;;;;;;5073664;28;20024;-81
2020/12/02 02:41:58;;;;;;;34.93;18.87;;;7.60;90.60;;;;;;5072386;28;20044;-81
2020/12/02 02:44:25;;;;;;;37.07;19.00;;;7.70;90.70;;;;;;5073279;28;20480;-81
2020/12/02 02:46:51;;;;;;;34.27;18.77;;;7.70;90.70;;;;;;5073584;28;20025;-81
2020/12/02 02:49:17;;;;;;;31.67;17.93;;;7.70;90.70;;;;;;5073558;28;20017;-81
2020/12/02 02:51:43;;;;;;;33.70;18.17;;;7.70;90.70;;;;;;5073456;28;20029;-81
2020/12/02 02:54:09;;;;;;;35.27;18.53;;;7.70;90.70;;;;;;5074245;28;20116;-81
2020/12/02 02:56:35;;;;;;;33.07;18.03;;;7.60;90.70;;;;;;5077121;28;20033;-81
2020/12/02 02:59:01;;;;;;;36.90;18.43;;;7.60;90.70;;;;;;5075679;28;20040;-81
2020/12/02 03:01:26;;;;;;;36.90;19.10;;;7.70;90.80;;;;;;5076726;28;20577;-82
2020/12/02 03:03:52;;;;;;;37.13;17.80;;;7.60;90.70;;;;;;5077495;28;20041;-81
2020/12/02 03:06:17;;;;;;;34.20;18.73;;;7.60;90.70;;;;;;5077681;28;20040;-82
2020/12/02 03:08:44;;;;;;;36.73;17.33;;;7.60;90.80;;;;;;5079865;28;20052;-74
2020/12/02 03:11:14;;;;;;;32.00;17.00;;;7.60;90.80;;;;;;5076448;28;20104;-74
2020/12/02 03:13:44;;;;;;;33.10;17.40;;;7.60;90.80;;;;;;5077629;28;20028;-82
2020/12/02 03:16:35;;;;;;;32.60;18.60;;;7.60;90.80;;;;;;5081845;28;20081;-82
2020/12/02 03:19:23;;;;;;;32.40;16.63;;;7.60;90.90;;;;;;5084918;28;20043;-81
2020/12/02 03:21:50;;;;;;;33.47;17.53;;;7.60;90.90;;;;;;5082577;28;20033;-82
2020/12/02 03:24:17;;;;;;;35.27;18.03;;;7.60;90.90;;;;;;5079916;28;20107;-82
2020/12/02 03:26:47;;;;;;;38.13;20.07;;;7.70;90.90;;;;;;5079687;28;20025;-81
2020/12/02 03:29:13;;;;;;;38.07;19.20;;;7.70;90.90;;;;;;5078985;28;20360;-81
2020/12/02 03:31:40;;;;;;;36.63;18.37;;;7.70;90.90;;;;;;5072776;28;20031;-81
2020/12/02 03:34:11;;;;;;;32.43;17.53;;;7.60;90.80;;;;;;5073179;28;20044;-82
2020/12/02 03:36:36;;;;;;;34.77;18.13;;;7.60;90.80;;;;;;5075954;28;20395;-81
2020/12/02 03:39:04;;;;;;;35.60;18.90;;;7.60;90.80;;;;;;5077007;28;20032;-81
2020/12/02 03:41:29;;;;;;;34.53;16.87;;;7.60;90.80;;;;;;5075672;28;20028;-81
2020/12/02 03:43:55;;;;;;;32.10;16.60;;;7.60;90.90;;;;;;5075567;28;20035;-82
2020/12/02 03:46:21;;;;;;;36.33;18.03;;;7.60;90.90;;;;;;5075355;28;20041;-81
2020/12/02 03:48:46;;;;;;;31.50;17.83;;;7.60;90.90;;;;;;5076747;28;20173;-82
2020/12/02 03:51:12;;;;;;;36.87;17.73;;;7.60;90.90;;;;;;5076840;28;20025;-82
2020/12/02 03:53:37;;;;;;;33.80;16.87;;;7.60;91.00;;;;;;5058839;28;20032;-82
2020/12/02 03:56:03;;;;;;;32.23;17.30;;;7.60;91.00;;;;;;5058551;28;20036;-81
2020/12/02 03:58:29;;;;;;;35.53;17.87;;;7.60;90.90;;;;;;5076784;28;20033;-82
2020/12/02 04:00:55;;;;;;;30.97;17.70;;;7.60;90.90;;;;;;5075292;28;20044;-82
2020/12/02 04:03:20;;;;;;;37.00;18.43;;;7.60;90.90;;;;;;5075201;28;20047;-81
2020/12/02 04:05:46;;;;;;;34.43;18.47;;;7.60;90.90;;;;;;5074978;28;20107;-74
2020/12/02 04:08:12;;;;;;;35.13;18.77;;;7.60;90.90;;;;;;5075062;28;20078;-82
2020/12/02 04:10:37;;;;;;;31.47;17.10;;;7.60;90.90;;;;;;5076407;28;20040;-81
2020/12/02 04:13:04;;;;;;;35.30;19.60;;;7.60;90.90;;;;;;5075235;28;20043;-81
2020/12/02 04:15:29;;;;;;;33.90;17.47;;;7.60;91.00;;;;;;5075355;28;20064;-82
2020/12/02 04:17:56;;;;;;;31.47;16.57;;;7.60;91.00;;;;;;5074958;28;20060;-81
2020/12/02 04:20:21;;;;;;;32.77;18.00;;;7.60;91.00;;;;;;5076278;28;20475;-81
2020/12/02 04:22:52;;;;;;;32.73;18.27;;;7.60;90.90;;;;;;5074937;28;20029;-81
2020/12/02 04:25:19;;;;;;;33.30;18.00;;;7.60;91.00;;;;;;5076262;28;20033;-82
2020/12/02 04:27:45;;;;;;;33.47;18.20;;;7.50;91.00;;;;;;5074779;28;20027;-81
2020/12/02 04:30:10;;;;;;;34.37;17.83;;;7.60;91.00;;;;;;5074694;28;20033;-81
2020/12/02 04:32:36;;;;;;;33.83;16.63;;;7.60;91.00;;;;;;5075881;28;20043;-82
2020/12/02 04:35:04;;;;;;;35.20;17.60;;;7.50;91.00;;;;;;5074510;28;20024;-81
2020/12/02 04:37:31;;;;;;;35.23;17.50;;;7.50;91.00;;;;;;5074589;28;20021;-82
2020/12/02 04:39:58;;;;;;;33.67;17.53;;;7.50;91.10;;;;;;5075915;28;20480;-82
2020/12/02 04:42:31;;;;;;;37.23;17.83;;;7.50;91.10;;;;;;5075840;28;20033;-81
2020/12/02 04:44:58;;;;;;;35.73;18.80;;;7.50;91.20;;;;;;5074282;28;20396;-81
2020/12/02 04:47:36;;;;;;;31.17;17.00;;;7.50;91.10;;;;;;5073507;28;20432;-81
2020/12/02 04:50:12;;;;;;;35.87;18.00;;;7.50;91.10;;;;;;5075853;28;20033;-82
2020/12/02 04:52:38;;;;;;;36.03;18.17;;;7.50;91.20;;;;;;5075822;28;20380;-81
2020/12/02 04:55:04;;;;;;;37.70;17.97;;;7.50;91.10;;;;;;5075380;28;20036;-82
2020/12/02 04:57:29;;;;;;;41.97;19.27;;;7.50;91.10;;;;;;5075411;28;20033;-82
2020/12/02 04:59:55;;;;;;;35.00;17.73;;;7.50;91.20;;;;;;5057342;28;20040;-81
2020/12/02 05:02:29;;;;;;;35.17;17.73;;;7.50;91.20;;;;;;5039452;28;20048;-81
2020/12/02 05:05:00;;;;;;;40.22;19.20;;;7.50;91.20;;;;;;5054222;28;20132;-81
2020/12/02 05:07:28;;;;;;;36.77;18.37;;;7.50;91.20;;;;;;5055156;28;20017;-82
2020/12/02 05:10:15;;;;;;;35.30;17.03;;;7.50;91.10;;;;;;5055171;28;20021;-82
2020/12/02 05:12:44;;;;;;;36.37;18.43;;;7.50;91.20;;;;;;5054048;28;20388;-82
2020/12/02 05:15:30;;;;;;;36.57;16.93;;;7.50;91.20;;;;;;5054969;28;20017;-82
2020/12/02 05:18:13;;;;;;;35.07;15.83;;;7.50;91.20;;;;;;5055080;28;20385;-82
2020/12/02 05:20:40;;;;;;;32.03;15.43;;;7.50;91.10;;;;;;5053896;28;20029;-82
2020/12/02 05:23:18;;;;;;;33.53;15.90;;;7.50;91.10;;;;;;5053759;28;20032;-82
2020/12/02 05:25:44;;;;;;;35.63;17.83;;;7.40;91.10;;;;;;5053637;28;20021;-82
2020/12/02 05:28:28;;;;;;;32.47;17.33;;;7.50;91.10;;;;;;5053536;28;20122;-82
2020/12/02 05:31:17;;;;;;;32.58;16.55;;;7.50;91.10;;;;;;5053469;28;20021;-81
2020/12/02 05:33:43;;;;;;;29.97;15.50;;;7.50;91.10;;;;;;5053445;28;20025;-81
2020/12/02 05:36:20;;;;;;;34.40;16.90;;;7.40;91.00;;;;;;5054654;28;20051;-81
2020/12/02 05:39:27;;;;;;;34.00;16.37;;;7.50;91.10;;;;;;5058101;28;20085;-81
2020/12/02 05:41:54;;;;;;;31.03;15.83;;;7.50;91.10;;;;;;5074037;28;20028;-82
2020/12/02 05:44:22;;;;;;;33.17;16.07;;;7.50;91.10;;;;;;5056630;28;20392;-81
2020/12/02 05:46:57;;;;;;;32.37;16.37;;;7.50;91.10;;;;;;5074751;28;20028;-81
2020/12/02 05:49:37;;;;;;;37.03;17.33;;;7.50;91.00;;;;;;5073102;28;20047;-82
2020/12/02 05:52:03;;;;;;;35.67;17.40;;;7.50;91.00;;;;;;5073944;28;20021;-81
2020/12/02 05:54:32;;;;;;;32.57;15.93;;;7.50;90.90;;;;;;5074400;28;20357;-82
2020/12/02 05:57:01;;;;;;;36.23;16.93;;;7.50;90.90;;;;;;5074489;28;20384;-81
2020/12/02 05:59:27;;;;;;;38.70;18.50;;;7.50;90.90;;;;;;5074234;28;20028;-81
2020/12/02 06:01:56;;;;;;;34.30;15.63;;;7.50;90.90;;;;;;5056190;28;20475;-81
2020/12/02 06:04:23;;;;;;;33.47;16.23;;;7.40;90.90;;;;;;5072656;28;20028;-81
2020/12/02 06:06:56;;;;;;;38.27;16.67;;;7.40;91.00;;;;;;5074048;28;20020;-81
2020/12/02 06:09:38;;;;;;;35.70;16.80;;;7.40;91.00;;;;;;5072873;28;20063;-82
2020/12/02 06:12:04;;;;;;;40.57;17.47;;;7.40;91.00;;;;;;5074019;28;20017;-81
2020/12/02 06:14:32;;;;;;;37.43;17.93;;;7.50;91.10;;;;;;5074397;28;20039;-81
2020/12/02 06:16:58;;;;;;;38.53;17.50;;;7.50;91.10;;;;;;5056409;28;20032;-82
2020/12/02 06:19:49;;;;;;;36.80;17.50;;;7.40;91.00;;;;;;5074018;28;20029;-81
2020/12/02 06:22:31;;;;;;;35.00;17.07;;;7.40;91.00;;;;;;5069769;28;20116;-81
2020/12/02 06:24:57;;;;;;;37.87;16.50;;;7.40;91.10;;;;;;5074019;28;20028;-82
2020/12/02 06:27:38;;;;;;;38.40;17.90;;;7.40;91.40;;;;;;5072907;28;20468;-82
2020/12/02 06:30:06;;;;;;;35.10;17.13;;;7.40;91.20;;;;;;5056694;28;20025;-82
2020/12/02 06:32:33;;;;;;;38.33;17.77;;;7.40;91.20;;;;;;5052162;28;20081;-81
2020/12/02 06:35:14;;;;;;;34.30;16.40;;;7.40;91.40;;;;;;5052589;28;20071;-82
2020/12/02 06:37:40;;;;;;;38.07;16.97;;;7.50;91.20;;;;;;5053378;28;20126;-82
2020/12/02 06:40:06;;;;;;;32.93;15.97;;;7.40;91.20;;;;;;5053595;28;20488;-81
2020/12/02 06:42:39;;;;;;;43.00;17.47;;;7.40;91.20;;;;;;5051809;28;20124;-80
2020/12/02 06:45:16;;;;;;;35.57;15.50;;;7.40;91.20;;;;;;5053260;28;20094;-81
2020/12/02 06:47:50;;;;;;;36.13;16.70;;;7.40;91.20;;;;;;5052300;28;20280;-81
2020/12/02 06:50:23;;;;;;;32.67;14.90;;;7.40;91.30;;;;;;5052165;28;20167;-81
2020/12/02 06:52:50;;;;;;;34.47;16.27;;;7.40;91.20;;;;;;5051972;28;20021;-80
2020/12/02 06:55:28;;;;;;;32.07;15.30;;;7.40;91.30;;;;;;5045038;28;20385;-81
2020/12/02 06:58:01;;;;;;;30.10;14.80;;;7.40;91.20;;;;;;5053461;28;20079;-80
2020/12/02 07:00:38;;;;;;;36.13;16.30;;;7.40;91.20;;;;;;5070216;28;20051;-80
2020/12/02 07:03:17;;;;;;;35.80;15.37;;;7.40;91.20;;;;;;5071383;28;20480;-80
2020/12/02 07:05:44;;;;;;;36.70;16.70;;;7.40;91.20;;;;;;5073166;28;20056;-80
2020/12/02 07:08:24;;;;;;;33.60;14.73;;;7.40;91.20;;;;;;5069916;28;20025;-80
2020/12/02 07:11:05;;;;;;;32.80;15.63;;;7.30;91.20;;;;;;5063438;28;20028;-80
2020/12/02 07:13:36;;;;;;;38.17;15.73;;;7.30;91.30;;;;;;5075906;28;20029;-80
2020/12/02 07:16:29;;;;;;;33.87;14.50;;;7.30;91.40;;;;;;5073655;28;20024;-81
2020/12/02 07:19:15;;;;;;;32.03;15.37;;;7.30;91.30;;;;;;5067083;28;20048;-81
2020/12/02 07:21:46;;;;;;;31.50;14.90;;;7.30;91.30;;;;;;5070894;28;20035;-80
2020/12/02 07:24:25;;;;;;;31.63;15.33;;;7.40;91.40;;;;;;5066398;28;20023;-80
2020/12/02 07:26:51;;;;;;;31.00;14.83;;;7.40;91.30;;;;;;5063823;28;20480;-81
2020/12/02 07:29:20;;;;;;;28.90;14.63;;;7.40;91.30;;;;;;5072514;28;20124;-81
2020/12/02 07:31:53;;;;;;;32.27;16.40;;;7.40;91.30;;;;;;5071238;28;20099;-81
2020/12/02 07:34:22;;;;;;;30.47;15.47;;;7.40;91.30;;;;;;5065876;28;20464;-81
2020/12/02 07:36:49;;;;;;;32.20;13.93;;;7.50;91.30;;;;;;5072452;28;20035;-82
2020/12/02 07:39:19;;;;;;;31.97;14.60;;;7.40;91.20;;;;;;5063471;28;20029;-82
2020/12/02 07:41:53;;;;;;;27.10;14.33;;;7.40;91.50;;;;;;5073084;28;20028;-82
2020/12/02 07:44:20;;;;;;;30.90;14.43;;;7.40;91.20;;;;;;5068453;28;20078;-83
2020/12/02 07:46:47;;;;;;;32.97;15.07;;;7.40;91.20;;;;;;5065480;28;20027;-82
2020/12/02 07:49:14;;;;;;;32.77;15.90;;;7.40;91.20;;;;;;5064379;28;20036;-82
2020/12/02 07:51:46;;;;;;;30.70;14.20;;;7.50;91.20;;;;;;5075850;28;20032;-82
2020/12/02 07:54:25;;;;;;;27.17;13.67;;;7.40;91.20;;;;;;5056548;28;20446;-82
2020/12/02 07:56:52;;;;;;;28.40;14.07;;;7.40;91.20;;;;;;5071299;28;20021;-82
2020/12/02 07:59:22;;;;;;;32.93;14.17;;;7.40;91.30;;;;;;5074255;28;20039;-82
2020/12/02 08:02:09;;;;;;;28.37;14.03;;;7.40;91.30;;;;;;5067786;28;20020;-81
2020/12/02 08:04:53;;;;;;;29.37;13.17;;;7.40;91.30;;;;;;5056291;28;20025;-82
2020/12/02 08:07:19;;;;;;;22.73;10.75;;;7.40;91.30;;;;;;5062891;28;20028;-82
2020/12/02 08:09:48;;;;;;;34.40;14.60;;;7.40;91.30;;;;;;5066340;28;20055;-82
2020/12/02 08:12:32;;;;;;;32.13;14.20;;;7.50;91.30;;;;;;5062696;28;20468;-80
2020/12/02 08:15:12;;;;;;;28.33;13.67;;;7.40;91.30;;;;;;5054327;28;20017;-80
2020/12/02 08:17:40;;;;;;;28.30;13.47;;;7.50;91.30;;;;;;5071502;28;20024;-80
2020/12/02 08:20:33;;;;;;;28.30;12.70;;;7.50;91.20;;;;;;5074558;28;20031;-81
2020/12/02 08:23:15;;;;;;;31.80;13.37;;;7.40;91.20;;;;;;5054606;28;20044;-80
2020/12/02 08:26:15;;;;;;;29.43;13.17;;;7.40;91.50;;;;;;5066653;28;20176;-82
2020/12/02 08:28:41;;;;;;;24.60;12.10;;;7.50;91.20;;;;;;5071352;28;20025;-81
2020/12/02 08:31:16;;;;;;;25.13;12.30;;;7.40;91.20;;;;;;5073741;28;20492;-80
2020/12/02 08:33:41;;;;;;;26.33;12.43;;;7.40;91.30;;;;;;5068583;28;20032;-80
2020/12/02 08:36:09;;;;;;;28.50;13.23;;;7.40;91.30;;;;;;5072579;28;20025;-80
2020/12/02 08:38:38;;;;;;;26.83;12.53;;;7.40;91.20;;;;;;5067695;28;20035;-81
2020/12/02 08:41:14;;;;;;;26.63;12.10;;;7.40;91.20;;;;;;5057912;28;20021;-80
2020/12/02 08:43:48;;;;;;;23.70;11.77;;;7.40;91.20;;;;;;5076348;28;20107;-82
2020/12/02 08:46:22;;;;;;;25.77;11.93;;;7.40;91.20;;;;;;5075650;28;20029;-83
2020/12/02 08:48:58;;;;;;;19.58;8.70;;;7.40;91.20;;;;;;5069079;28;20157;-82
2020/12/02 08:51:24;;;;;;;24.60;11.47;;;7.40;91.20;;;;;;5065870;28;20029;-82
2020/12/02 08:53:51;;;;;;;22.57;11.50;;;7.50;91.20;;;;;;5067887;28;20020;-82
2020/12/02 08:56:24;;;;;;;25.37;12.13;;;7.50;91.20;;;;;;5069755;28;20044;-82
2020/12/02 08:58:49;;;;;;;23.00;10.87;;;7.50;91.20;;;;;;5062998;28;20111;-82
2020/12/02 09:01:15;;;;;;;24.37;11.80;;;7.50;91.20;;;;;;5064934;28;20056;-82
2020/12/02 09:03:40;;;;;;;23.03;10.57;;;7.60;91.20;;;;;;5060664;28;20037;-82
2020/12/02 09:06:08;;;;;;;23.27;11.40;;;7.60;91.20;;;;;;5072166;28;20032;-81
2020/12/02 09:08:33;;;;;;;22.80;10.80;;;7.60;91.20;;;;;;5068954;28;20032;-83
2020/12/02 09:10:59;;;;;;;24.23;11.63;;;7.60;91.20;;;;;;5053881;28;20029;-84
2020/12/02 09:13:24;;;;;;;28.73;11.87;;;7.70;91.10;;;;;;5054639;28;20053;-83
2020/12/02 09:15:50;;;;;;;26.90;11.87;;;7.60;91.10;;;;;;5065581;28;20033;-81
2020/12/02 09:18:15;;;;;;;23.77;11.33;;;7.70;91.00;;;;;;5046496;28;20033;-82
2020/12/02 09:20:41;;;;;;;26.63;10.50;;;7.70;91.00;;;;;;5048729;28;20025;-82
2020/12/02 09:23:07;;;;;;;25.00;12.17;;;7.70;90.90;;;;;;5061317;28;20475;-80
2020/12/02 09:25:32;;;;;;;26.50;10.93;;;7.60;90.90;;;;;;5052992;28;20479;-81
2020/12/02 09:27:58;;;;;;;27.03;11.23;;;7.70;90.90;;;;;;5041927;28;20079;-80
2020/12/02 09:30:24;;;;;;;19.87;9.70;;;7.70;90.90;;;;;;5053592;28;20017;-81
2020/12/02 09:32:49;;;;;;;21.77;10.30;;;7.70;90.80;;;;;;5042411;28;20084;-81
2020/12/02 09:35:15;;;;;;;21.50;9.80;;;7.70;90.80;;;;;;5067070;28;20445;-82
2020/12/02 09:37:40;;;;;;;23.97;10.27;;;7.70;90.70;;;;;;5065287;28;20112;-82
2020/12/02 09:40:13;;;;;;;19.80;10.07;;;7.70;90.70;;;;;;5058894;28;20040;-81
2020/12/02 09:43:02;;;;;;;17.90;9.57;;;7.80;90.70;;;;;;5071992;28;20115;-81
2020/12/02 09:45:40;;;;;;;19.87;10.27;;;7.80;90.70;;;;;;5058260;28;20041;-81
2020/12/02 09:48:18;;;;;;;20.33;9.60;;;7.80;90.60;;;;;;5066463;28;20020;-73
2020/12/02 09:50:45;;;;;;;22.63;10.93;;;7.80;90.60;;;;;;5054413;28;20029;-73
2020/12/02 09:53:19;;;;;;;20.10;10.80;;;7.80;90.60;;;;;;5065842;28;20452;-74
2020/12/02 09:55:44;;;;;;;20.15;10.63;;;7.80;90.60;;;;;;5056482;28;20135;-73
2020/12/02 09:58:14;;;;;;;23.73;10.73;;;7.70;90.50;;;;;;5066006;28;20037;-74
2020/12/02 10:00:39;;;;;;;19.73;9.60;;;7.80;90.50;;;;;;5067251;28;20024;-74
2020/12/02 10:03:17;;;;;;;19.97;10.30;;;7.80;90.60;;;;;;5058660;28;20550;-74
2020/12/02 10:06:12;;;;;;;20.03;10.43;;;7.80;90.60;;;;;;5053135;28;20036;-73
2020/12/02 10:09:02;;;;;;;20.37;10.50;;;7.80;90.50;;;;;;5065438;28;20419;-73
2020/12/02 10:11:49;;;;;;;21.30;11.10;;;7.80;90.50;;;;;;5063796;28;20039;-73
2020/12/02 10:14:43;;;;;;;22.53;11.10;;;7.80;90.40;;;;;;5064233;28;20032;-73
2020/12/02 10:17:31;;;;;;;20.67;10.23;;;7.80;90.40;;;;;;5058727;28;20108;-73
2020/12/02 10:20:30;;;;;;;18.63;10.43;;;7.80;90.40;;;;;;5079359;28;20132;-73
2020/12/02 10:23:10;;;;;;;21.60;10.93;;;7.80;90.40;;;;;;5073782;28;20020;-73
2020/12/02 10:26:16;;;;;;;21.03;10.60;;;7.80;90.40;;;;;;5058506;28;20017;-73
2020/12/02 10:28:55;;;;;;;22.43;11.13;;;7.90;90.40;;;;;;5057928;28;20071;-73
2020/12/02 10:31:30;;;;;;;23.17;11.03;;;7.90;90.30;;;;;;5052310;28;20021;-73
2020/12/02 10:34:27;;;;;;;22.67;11.40;;;7.90;90.30;;;;;;5061561;28;20024;-73
2020/12/02 10:37:24;;;;;;;21.30;11.13;;;7.90;90.30;;;;;;5063208;28;20020;-73
2020/12/02 10:39:50;;;;;;;22.53;11.53;;;7.90;90.30;;;;;;5073802;28;20522;-73
2020/12/02 10:42:41;;;;;;;23.17;11.73;;;7.90;90.20;;;;;;5061199;28;20103;-73
2020/12/02 10:45:17;;;;;;;21.47;11.70;;;7.90;90.30;;;;;;5063335;28;20033;-73
2020/12/02 10:48:07;;;;;;;21.57;10.73;;;7.90;90.30;;;;;;5062733;28;20056;-73
2020/12/02 10:50:36;;;;;;;25.37;12.10;;;7.90;90.30;;;;;;5062155;28;20082;-73
2020/12/02 10:53:11;;;;;;;20.33;10.80;;;7.90;90.30;;;;;;5054555;28;20025;-80
2020/12/02 10:55:37;;;;;;;22.70;12.33;;;7.90;90.30;;;;;;5053329;28;20028;-81
2020/12/02 10:58:29;;;;;;;24.27;13.13;;;7.90;90.30;;;;;;5053463;28;20029;-80
2020/12/02 11:00:57;;;;;;;25.30;13.47;;;7.90;90.20;;;;;;5051301;28;20035;-81
2020/12/02 11:03:33;;;;;;;25.13;12.47;;;7.90;90.20;;;;;;5058223;28;20041;-82
2020/12/02 11:06:07;;;;;;;24.03;11.73;;;7.90;90.10;;;;;;5056651;28;20028;-80
2020/12/02 11:08:56;;;;;;;25.20;13.50;;;7.90;90.10;;;;;;5062003;28;20492;-81
2020/12/02 11:11:37;;;;;;;23.80;11.70;;;7.90;90.10;;;;;;5056047;28;20037;-81
2020/12/02 11:14:27;;;;;;;22.17;11.20;;;7.90;90.40;;;;;;5064896;28;20020;-80
2020/12/02 11:17:23;;;;;;;23.50;11.60;;;7.90;90.20;;;;;;5064260;28;20032;-81
2020/12/02 11:19:52;;;;;;;23.80;12.67;;;7.90;90.20;;;;;;5067908;28;20170;-81
2020/12/02 11:22:42;;;;;;;23.30;11.90;;;7.90;90.10;;;;;;5052929;28;20032;-81
2020/12/02 11:25:49;;;;;;;27.93;13.23;;;7.90;90.10;;;;;;5066683;28;20421;-82
2020/12/02 11:28:15;;;;;;;25.77;12.37;;;8.00;90.00;;;;;;5051887;28;20017;-81
2020/12/02 11:30:44;;;;;;;26.17;12.00;;;8.00;89.90;;;;;;5060833;28;20029;-81
2020/12/02 11:33:36;;;;;;;25.97;12.30;;;7.90;90.00;;;;;;5051830;28;20020;-81
2020/12/02 11:36:23;;;;;;;26.87;12.57;;;7.90;89.80;;;;;;5065610;28;20020;-83
2020/12/02 11:39:20;;;;;;;25.27;12.60;;;8.00;89.80;;;;;;5064785;28;20017;-80
2020/12/02 11:41:58;;;;;;;27.70;13.33;;;7.90;89.60;;;;;;5063057;28;20426;-80
2020/12/02 11:44:23;;;;;;;26.60;12.73;;;7.90;89.60;;;;;;5058477;28;20115;-80
2020/12/02 11:47:01;;;;;;;26.67;13.67;;;7.90;89.70;;;;;;5055935;28;20104;-79
2020/12/02 11:49:39;;;;;;;28.77;13.47;;;7.90;89.80;;;;;;5058597;28;20025;-82
2020/12/02 11:52:32;;;;;;;33.53;15.10;;;7.80;89.80;;;;;;5050930;28;20017;-82
2020/12/02 11:54:58;;;;;;;29.63;12.60;;;7.90;89.80;;;;;;5051444;28;20021;-82
2020/12/02 11:57:24;;;;;;;26.93;14.10;;;7.90;89.80;;;;;;5053902;28;20438;-81
2020/12/02 11:59:50;;;;;;;29.67;14.03;;;7.90;89.80;;;;;;5056512;28;20033;-81
2020/12/02 12:02:44;;;;;;;30.23;14.17;;;7.90;89.80;;;;;;5056992;28;20029;-81
2020/12/02 12:05:21;;;;;;;20.77;9.73;;;7.90;89.90;;;;;;5057602;28;20017;-81
2020/12/02 12:07:56;;;;;;;29.97;14.00;;;7.80;90.00;;;;;;5071819;28;20028;-81
2020/12/02 12:10:53;;;;;;;29.30;13.87;;;7.80;90.00;;;;;;5076536;28;20025;-80
2020/12/02 12:13:19;;;;;;;29.37;13.73;;;7.80;90.10;;;;;;5075750;28;20120;-80
2020/12/02 12:15:54;;;;;;;32.93;13.43;;;7.80;90.10;;;;;;5076353;28;20056;-72
2020/12/02 12:18:42;;;;;;;34.50;15.50;;;7.80;90.10;;;;;;5076151;28;20020;-72
2020/12/02 12:21:29;;;;;;;34.20;16.17;;;7.80;90.10;;;;;;5076115;28;20048;-72
2020/12/02 12:24:10;;;;;;;38.33;17.13;;;7.80;90.10;;;;;;5076434;28;20024;-72
2020/12/02 12:26:43;;;;;;;39.00;17.10;;;7.80;90.00;;;;;;5076154;28;20017;-72
2020/12/02 12:29:11;;;;;;;36.33;16.07;;;7.80;90.00;;;;;;5075939;28;20023;-72
2020/12/02 12:32:04;;;;;;;38.20;16.80;;;7.90;90.10;;;;;;5076080;28;20024;-72
2020/12/02 12:34:44;;;;;;;37.90;17.43;;;7.80;90.10;;;;;;5074455;28;20021;-73
2020/12/02 12:37:20;;;;;;;34.37;16.73;;;7.70;90.10;;;;;;5075781;28;20035;-73
2020/12/02 12:39:50;;;;;;;38.30;17.53;;;7.80;90.10;;;;;;5075662;28;20024;-73
2020/12/02 12:42:21;;;;;;;35.53;16.73;;;7.80;90.20;;;;;;5075727;28;20032;-72
2020/12/02 12:44:48;;;;;;;36.23;16.87;;;7.80;90.20;;;;;;5074087;28;20075;-72
2020/12/02 12:47:23;;;;;;;38.67;17.40;;;7.80;90.20;;;;;;5075578;28;20033;-72
2020/12/02 12:49:50;;;;;;;40.50;18.67;;;7.80;90.20;;;;;;5075558;28;20134;-73
2020/12/02 12:52:20;;;;;;;36.83;17.47;;;7.80;90.20;;;;;;5057685;28;20028;-73
2020/12/02 12:54:47;;;;;;;37.43;17.43;;;7.80;90.20;;;;;;5074220;28;20079;-72
2020/12/02 12:57:17;;;;;;;39.00;18.40;;;7.70;90.20;;;;;;5074186;28;20089;-73
2020/12/02 12:59:42;;;;;;;39.33;18.37;;;7.70;90.20;;;;;;5075155;28;20050;-72
2020/12/02 13:02:24;;;;;;;36.80;17.17;;;7.70;90.30;;;;;;5075270;28;20024;-72
2020/12/02 13:04:50;;;;;;;40.27;17.87;;;7.70;90.30;;;;;;5075234;28;20436;-73
2020/12/02 13:07:21;;;;;;;36.73;17.53;;;7.70;90.30;;;;;;5074032;28;20021;-73
2020/12/02 13:10:11;;;;;;;36.63;17.13;;;7.60;90.40;;;;;;5072961;28;20130;-73